sensor_id;sensor_type;location;lat;lon;timestamp;P1;durP1;ratioP1;P2;durP2;ratioP2
50102;SDS011;35993;52.604;10.078;2023-03-01T00:00:53;17.23;;;9.13;;
50102;SDS011;35993;52.604;10.078;2023-03-01T00:03:18;18.53;;;8.67;;
50102;SDS011;35993;52.604;10.078;2023-03-01T00:05:44;18.53;;;9.07;;
50102;SDS011;35993;52.604;10.078;2023-03-01T00:08:11;16.40;;;8.50;;
50102;SDS011;35993;52.604;10.078;2023-03-01T00:10:37;15.80;;;8.60;;
50102;SDS011;35993;52.604;10.078;2023-03-01T00:13:02;14.20;;;8.20;;
50102;SDS011;35993;52.604;10.078;2023-03-01T00:15:33;18.83;;;8.23;;
50102;SDS011;35993;52.604;10.078;2023-03-01T00:18:00;23.03;;;8.00;;
50102;SDS011;35993;52.604;10.078;2023-03-01T00:20:25;15.80;;;7.90;;
50102;SDS011;35993;52.604;10.078;2023-03-01T00:22:51;14.03;;;8.63;;
50102;SDS011;35993;52.604;10.078;2023-03-01T00:25:16;18.67;;;8.93;;
50102;SDS011;35993;52.604;10.078;2023-03-01T00:27:42;15.07;;;8.17;;
50102;SDS011;35993;52.604;10.078;2023-03-01T00:30:08;20.20;;;9.13;;
50102;SDS011;35993;52.604;10.078;2023-03-01T00:32:33;16.37;;;8.57;;
50102;SDS011;35993;52.604;10.078;2023-03-01T00:34:59;16.53;;;8.63;;
50102;SDS011;35993;52.604;10.078;2023-03-01T00:37:24;16.67;;;8.20;;
50102;SDS011;35993;52.604;10.078;2023-03-01T00:39:50;22.37;;;8.50;;
50102;SDS011;35993;52.604;10.078;2023-03-01T00:42:16;18.70;;;8.13;;
50102;SDS011;35993;52.604;10.078;2023-03-01T00:44:42;19.00;;;8.57;;
50102;SDS011;35993;52.604;10.078;2023-03-01T00:47:08;15.33;;;7.73;;
50102;SDS011;35993;52.604;10.078;2023-03-01T00:49:34;17.13;;;8.60;;
50102;SDS011;35993;52.604;10.078;2023-03-01T00:52:00;16.00;;;8.50;;
50102;SDS011;35993;52.604;10.078;2023-03-01T00:54:25;18.50;;;8.40;;
50102;SDS011;35993;52.604;10.078;2023-03-01T00:56:51;15.33;;;8.63;;
50102;SDS011;35993;52.604;10.078;2023-03-01T00:59:16;16.53;;;8.70;;
50102;SDS011;35993;52.604;10.078;2023-03-01T01:01:42;20.37;;;8.67;;
50102;SDS011;35993;52.604;10.078;2023-03-01T01:04:09;18.07;;;8.60;;
50102;SDS011;35993;52.604;10.078;2023-03-01T01:06:40;18.03;;;8.07;;
50102;SDS011;35993;52.604;10.078;2023-03-01T01:09:11;15.43;;;7.97;;
50102;SDS011;35993;52.604;10.078;2023-03-01T01:11:46;15.88;;;8.40;;
50102;SDS011;35993;52.604;10.078;2023-03-01T01:14:13;22.20;;;9.80;;
50102;SDS011;35993;52.604;10.078;2023-03-01T01:16:39;17.13;;;8.00;;
50102;SDS011;35993;52.604;10.078;2023-03-01T01:19:05;16.13;;;8.63;;
50102;SDS011;35993;52.604;10.078;2023-03-01T01:21:32;16.77;;;7.90;;
50102;SDS011;35993;52.604;10.078;2023-03-01T01:23:57;16.20;;;7.67;;
50102;SDS011;35993;52.604;10.078;2023-03-01T01:26:24;17.27;;;8.17;;
50102;SDS011;35993;52.604;10.078;2023-03-01T01:28:51;16.30;;;8.63;;
50102;SDS011;35993;52.604;10.078;2023-03-01T01:31:18;21.40;;;8.50;;
50102;SDS011;35993;52.604;10.078;2023-03-01T01:33:44;18.43;;;8.60;;
50102;SDS011;35993;52.604;10.078;2023-03-01T01:36:11;16.03;;;7.93;;
50102;SDS011;35993;52.604;10.078;2023-03-01T01:38:37;15.87;;;7.40;;
50102;SDS011;35993;52.604;10.078;2023-03-01T01:41:03;18.47;;;8.00;;
50102;SDS011;35993;52.604;10.078;2023-03-01T01:43:33;16.70;;;8.03;;
50102;SDS011;35993;52.604;10.078;2023-03-01T01:46:02;16.33;;;7.63;;
50102;SDS011;35993;52.604;10.078;2023-03-01T01:48:39;17.73;;;8.27;;
50102;SDS011;35993;52.604;10.078;2023-03-01T01:51:10;15.40;;;7.43;;
50102;SDS011;35993;52.604;10.078;2023-03-01T01:53:42;14.90;;;8.20;;
50102;SDS011;35993;52.604;10.078;2023-03-01T01:56:10;17.03;;;7.57;;
50102;SDS011;35993;52.604;10.078;2023-03-01T01:58:39;16.00;;;7.83;;
50102;SDS011;35993;52.604;10.078;2023-03-01T02:01:07;18.47;;;7.57;;
50102;SDS011;35993;52.604;10.078;2023-03-01T02:03:33;17.10;;;8.00;;
50102;SDS011;35993;52.604;10.078;2023-03-01T02:06:13;16.07;;;8.17;;
50102;SDS011;35993;52.604;10.078;2023-03-01T02:11:11;15.77;;;7.80;;
50102;SDS011;35993;52.604;10.078;2023-03-01T02:13:40;14.73;;;7.40;;
50102;SDS011;35993;52.604;10.078;2023-03-01T02:16:11;13.27;;;6.73;;
50102;SDS011;35993;52.604;10.078;2023-03-01T02:18:40;15.87;;;7.50;;
50102;SDS011;35993;52.604;10.078;2023-03-01T02:21:16;14.07;;;7.40;;
50102;SDS011;35993;52.604;10.078;2023-03-01T02:24:38;14.53;;;7.17;;
50102;SDS011;35993;52.604;10.078;2023-03-01T02:27:05;16.80;;;7.80;;
50102;SDS011;35993;52.604;10.078;2023-03-01T02:29:32;15.77;;;7.13;;
50102;SDS011;35993;52.604;10.078;2023-03-01T02:31:59;15.40;;;6.97;;
50102;SDS011;35993;52.604;10.078;2023-03-01T02:34:28;16.97;;;6.73;;
50102;SDS011;35993;52.604;10.078;2023-03-01T02:36:57;16.37;;;7.37;;
50102;SDS011;35993;52.604;10.078;2023-03-01T02:39:39;12.30;;;7.07;;
50102;SDS011;35993;52.604;10.078;2023-03-01T02:42:11;13.63;;;6.73;;
50102;SDS011;35993;52.604;10.078;2023-03-01T02:44:40;15.37;;;7.20;;
50102;SDS011;35993;52.604;10.078;2023-03-01T02:47:05;13.67;;;7.13;;
50102;SDS011;35993;52.604;10.078;2023-03-01T02:49:32;12.63;;;6.80;;
50102;SDS011;35993;52.604;10.078;2023-03-01T02:54:50;13.37;;;7.37;;
50102;SDS011;35993;52.604;10.078;2023-03-01T02:57:23;12.83;;;6.17;;
50102;SDS011;35993;52.604;10.078;2023-03-01T02:59:50;13.90;;;7.53;;
50102;SDS011;35993;52.604;10.078;2023-03-01T03:02:20;15.83;;;7.13;;
50102;SDS011;35993;52.604;10.078;2023-03-01T03:05:03;15.83;;;7.17;;
50102;SDS011;35993;52.604;10.078;2023-03-01T03:07:42;13.90;;;6.73;;
50102;SDS011;35993;52.604;10.078;2023-03-01T03:10:10;15.57;;;7.10;;
50102;SDS011;35993;52.604;10.078;2023-03-01T03:12:38;14.67;;;7.63;;
50102;SDS011;35993;52.604;10.078;2023-03-01T03:15:06;13.80;;;6.70;;
50102;SDS011;35993;52.604;10.078;2023-03-01T03:17:37;15.80;;;7.03;;
50102;SDS011;35993;52.604;10.078;2023-03-01T03:20:04;13.63;;;6.47;;
50102;SDS011;35993;52.604;10.078;2023-03-01T03:22:36;18.73;;;7.63;;
50102;SDS011;35993;52.604;10.078;2023-03-01T03:25:03;15.67;;;6.40;;
50102;SDS011;35993;52.604;10.078;2023-03-01T03:27:28;11.57;;;6.57;;
50102;SDS011;35993;52.604;10.078;2023-03-01T03:29:54;12.97;;;6.57;;
50102;SDS011;35993;52.604;10.078;2023-03-01T03:32:22;13.37;;;6.90;;
50102;SDS011;35993;52.604;10.078;2023-03-01T03:34:48;16.20;;;6.77;;
50102;SDS011;35993;52.604;10.078;2023-03-01T03:37:14;15.57;;;6.87;;
50102;SDS011;35993;52.604;10.078;2023-03-01T03:40:00;14.83;;;7.00;;
50102;SDS011;35993;52.604;10.078;2023-03-01T03:42:25;13.43;;;6.67;;
50102;SDS011;35993;52.604;10.078;2023-03-01T03:44:51;11.77;;;6.50;;
50102;SDS011;35993;52.604;10.078;2023-03-01T03:47:16;11.20;;;6.13;;
50102;SDS011;35993;52.604;10.078;2023-03-01T03:49:42;14.57;;;6.33;;
50102;SDS011;35993;52.604;10.078;2023-03-01T03:52:08;12.30;;;5.90;;
50102;SDS011;35993;52.604;10.078;2023-03-01T03:54:41;12.27;;;6.00;;
50102;SDS011;35993;52.604;10.078;2023-03-01T03:57:07;12.33;;;5.80;;
50102;SDS011;35993;52.604;10.078;2023-03-01T03:59:32;15.13;;;6.63;;
50102;SDS011;35993;52.604;10.078;2023-03-01T04:01:58;10.03;;;5.43;;
50102;SDS011;35993;52.604;10.078;2023-03-01T04:04:23;9.63;;;5.43;;
50102;SDS011;35993;52.604;10.078;2023-03-01T04:06:49;13.03;;;5.90;;
50102;SDS011;35993;52.604;10.078;2023-03-01T04:09:15;12.50;;;5.87;;
50102;SDS011;35993;52.604;10.078;2023-03-01T04:11:40;13.50;;;5.90;;
50102;SDS011;35993;52.604;10.078;2023-03-01T04:14:06;15.47;;;6.77;;
50102;SDS011;35993;52.604;10.078;2023-03-01T04:16:31;16.70;;;6.57;;
50102;SDS011;35993;52.604;10.078;2023-03-01T04:18:57;14.40;;;6.33;;
50102;SDS011;35993;52.604;10.078;2023-03-01T04:21:24;13.10;;;6.73;;
50102;SDS011;35993;52.604;10.078;2023-03-01T04:23:50;10.53;;;6.17;;
50102;SDS011;35993;52.604;10.078;2023-03-01T04:26:18;12.83;;;6.03;;
50102;SDS011;35993;52.604;10.078;2023-03-01T04:28:45;11.50;;;6.07;;
50102;SDS011;35993;52.604;10.078;2023-03-01T04:31:12;14.17;;;6.50;;
50102;SDS011;35993;52.604;10.078;2023-03-01T04:33:41;13.00;;;6.67;;
50102;SDS011;35993;52.604;10.078;2023-03-01T04:36:12;11.87;;;6.57;;
50102;SDS011;35993;52.604;10.078;2023-03-01T04:38:39;12.63;;;6.70;;
50102;SDS011;35993;52.604;10.078;2023-03-01T04:41:06;14.00;;;6.70;;
50102;SDS011;35993;52.604;10.078;2023-03-01T04:43:33;17.70;;;8.20;;
50102;SDS011;35993;52.604;10.078;2023-03-01T04:46:00;15.43;;;7.93;;
50102;SDS011;35993;52.604;10.078;2023-03-01T04:48:31;17.25;;;7.53;;
50102;SDS011;35993;52.604;10.078;2023-03-01T04:50:58;15.07;;;7.63;;
50102;SDS011;35993;52.604;10.078;2023-03-01T04:53:24;22.57;;;7.83;;
50102;SDS011;35993;52.604;10.078;2023-03-01T04:55:50;16.17;;;7.87;;
50102;SDS011;35993;52.604;10.078;2023-03-01T04:58:16;18.03;;;7.40;;
50102;SDS011;35993;52.604;10.078;2023-03-01T05:00:41;15.20;;;7.80;;
50102;SDS011;35993;52.604;10.078;2023-03-01T05:03:08;16.03;;;7.47;;
50102;SDS011;35993;52.604;10.078;2023-03-01T05:05:35;13.87;;;7.00;;
50102;SDS011;35993;52.604;10.078;2023-03-01T05:08:03;12.47;;;7.37;;
50102;SDS011;35993;52.604;10.078;2023-03-01T05:10:32;13.73;;;6.77;;
50102;SDS011;35993;52.604;10.078;2023-03-01T05:13:00;12.37;;;6.27;;
50102;SDS011;35993;52.604;10.078;2023-03-01T05:15:27;13.27;;;6.73;;
50102;SDS011;35993;52.604;10.078;2023-03-01T05:17:55;10.03;;;5.90;;
50102;SDS011;35993;52.604;10.078;2023-03-01T05:20:24;11.67;;;5.87;;
50102;SDS011;35993;52.604;10.078;2023-03-01T05:22:54;11.70;;;5.73;;
50102;SDS011;35993;52.604;10.078;2023-03-01T05:25:22;10.07;;;5.22;;
50102;SDS011;35993;52.604;10.078;2023-03-01T05:27:48;15.13;;;7.40;;
50102;SDS011;35993;52.604;10.078;2023-03-01T05:30:13;16.00;;;6.97;;
50102;SDS011;35993;52.604;10.078;2023-03-01T05:32:47;15.67;;;6.37;;
50102;SDS011;35993;52.604;10.078;2023-03-01T05:35:15;12.67;;;5.73;;
50102;SDS011;35993;52.604;10.078;2023-03-01T05:37:46;12.70;;;6.13;;
50102;SDS011;35993;52.604;10.078;2023-03-01T05:40:14;11.67;;;5.80;;
50102;SDS011;35993;52.604;10.078;2023-03-01T05:42:48;14.13;;;6.50;;
50102;SDS011;35993;52.604;10.078;2023-03-01T05:45:19;15.23;;;8.00;;
50102;SDS011;35993;52.604;10.078;2023-03-01T05:47:46;13.23;;;6.00;;
50102;SDS011;35993;52.604;10.078;2023-03-01T05:50:14;13.20;;;6.47;;
50102;SDS011;35993;52.604;10.078;2023-03-01T05:52:48;14.52;;;6.75;;
50102;SDS011;35993;52.604;10.078;2023-03-01T05:55:16;12.70;;;6.17;;
50102;SDS011;35993;52.604;10.078;2023-03-01T05:57:43;13.53;;;6.60;;
50102;SDS011;35993;52.604;10.078;2023-03-01T06:00:09;12.43;;;5.80;;
50102;SDS011;35993;52.604;10.078;2023-03-01T06:02:38;12.97;;;6.37;;
50102;SDS011;35993;52.604;10.078;2023-03-01T06:05:06;12.87;;;5.83;;
50102;SDS011;35993;52.604;10.078;2023-03-01T06:07:32;11.53;;;5.50;;
50102;SDS011;35993;52.604;10.078;2023-03-01T06:09:58;12.30;;;5.80;;
50102;SDS011;35993;52.604;10.078;2023-03-01T06:12:24;12.33;;;6.10;;
50102;SDS011;35993;52.604;10.078;2023-03-01T06:14:49;12.60;;;5.93;;
50102;SDS011;35993;52.604;10.078;2023-03-01T06:17:15;13.17;;;5.63;;
50102;SDS011;35993;52.604;10.078;2023-03-01T06:19:40;14.73;;;5.67;;
50102;SDS011;35993;52.604;10.078;2023-03-01T06:22:06;10.50;;;5.77;;
50102;SDS011;35993;52.604;10.078;2023-03-01T06:24:32;12.77;;;5.97;;
50102;SDS011;35993;52.604;10.078;2023-03-01T06:26:58;12.53;;;5.73;;
50102;SDS011;35993;52.604;10.078;2023-03-01T06:29:23;11.63;;;6.00;;
50102;SDS011;35993;52.604;10.078;2023-03-01T06:31:49;13.47;;;6.10;;
50102;SDS011;35993;52.604;10.078;2023-03-01T06:34:15;13.87;;;5.20;;
50102;SDS011;35993;52.604;10.078;2023-03-01T06:36:40;20.50;;;6.17;;
50102;SDS011;35993;52.604;10.078;2023-03-01T06:39:06;12.77;;;5.53;;
50102;SDS011;35993;52.604;10.078;2023-03-01T06:41:32;13.47;;;5.17;;
50102;SDS011;35993;52.604;10.078;2023-03-01T06:43:59;13.23;;;5.60;;
50102;SDS011;35993;52.604;10.078;2023-03-01T06:46:24;15.53;;;5.70;;
50102;SDS011;35993;52.604;10.078;2023-03-01T06:48:50;12.77;;;5.63;;
50102;SDS011;35993;52.604;10.078;2023-03-01T06:51:16;11.37;;;4.63;;
50102;SDS011;35993;52.604;10.078;2023-03-01T06:53:41;11.43;;;4.80;;
50102;SDS011;35993;52.604;10.078;2023-03-01T06:56:06;11.73;;;5.10;;
50102;SDS011;35993;52.604;10.078;2023-03-01T06:58:32;11.87;;;5.17;;
50102;SDS011;35993;52.604;10.078;2023-03-01T07:00:58;13.70;;;5.27;;
50102;SDS011;35993;52.604;10.078;2023-03-01T07:03:23;14.30;;;6.23;;
50102;SDS011;35993;52.604;10.078;2023-03-01T07:05:49;13.20;;;6.63;;
50102;SDS011;35993;52.604;10.078;2023-03-01T07:08:17;10.77;;;6.43;;
50102;SDS011;35993;52.604;10.078;2023-03-01T07:10:43;16.77;;;6.50;;
50102;SDS011;35993;52.604;10.078;2023-03-01T07:13:09;13.57;;;6.57;;
50102;SDS011;35993;52.604;10.078;2023-03-01T07:15:34;18.53;;;6.90;;
50102;SDS011;35993;52.604;10.078;2023-03-01T07:18:00;15.60;;;6.83;;
50102;SDS011;35993;52.604;10.078;2023-03-01T07:20:26;13.60;;;6.53;;
50102;SDS011;35993;52.604;10.078;2023-03-01T07:22:52;11.93;;;6.43;;
50102;SDS011;35993;52.604;10.078;2023-03-01T07:25:18;13.83;;;7.17;;
50102;SDS011;35993;52.604;10.078;2023-03-01T07:27:48;10.87;;;6.07;;
50102;SDS011;35993;52.604;10.078;2023-03-01T07:30:14;13.73;;;5.70;;
50102;SDS011;35993;52.604;10.078;2023-03-01T07:32:40;10.93;;;5.23;;
50102;SDS011;35993;52.604;10.078;2023-03-01T07:35:05;12.67;;;5.87;;
50102;SDS011;35993;52.604;10.078;2023-03-01T07:37:31;13.90;;;6.20;;
50102;SDS011;35993;52.604;10.078;2023-03-01T07:39:57;12.57;;;6.47;;
50102;SDS011;35993;52.604;10.078;2023-03-01T07:42:22;11.97;;;5.77;;
50102;SDS011;35993;52.604;10.078;2023-03-01T07:44:48;8.50;;;4.63;;
50102;SDS011;35993;52.604;10.078;2023-03-01T07:47:13;7.97;;;4.80;;
50102;SDS011;35993;52.604;10.078;2023-03-01T07:49:39;9.03;;;4.47;;
50102;SDS011;35993;52.604;10.078;2023-03-01T07:52:04;11.00;;;4.87;;
50102;SDS011;35993;52.604;10.078;2023-03-01T07:54:30;12.10;;;5.90;;
50102;SDS011;35993;52.604;10.078;2023-03-01T07:56:56;8.33;;;4.10;;
50102;SDS011;35993;52.604;10.078;2023-03-01T07:59:22;10.33;;;5.00;;
50102;SDS011;35993;52.604;10.078;2023-03-01T08:01:54;7.80;;;3.67;;
50102;SDS011;35993;52.604;10.078;2023-03-01T08:04:20;8.07;;;4.33;;
50102;SDS011;35993;52.604;10.078;2023-03-01T08:06:46;6.10;;;3.70;;
50102;SDS011;35993;52.604;10.078;2023-03-01T08:09:12;9.40;;;4.17;;
50102;SDS011;35993;52.604;10.078;2023-03-01T08:11:38;8.00;;;4.23;;
50102;SDS011;35993;52.604;10.078;2023-03-01T08:14:04;6.43;;;3.77;;
50102;SDS011;35993;52.604;10.078;2023-03-01T08:16:29;6.83;;;3.70;;
50102;SDS011;35993;52.604;10.078;2023-03-01T08:18:55;12.37;;;4.13;;
50102;SDS011;35993;52.604;10.078;2023-03-01T08:21:21;6.47;;;3.70;;
50102;SDS011;35993;52.604;10.078;2023-03-01T08:23:47;11.10;;;3.90;;
50102;SDS011;35993;52.604;10.078;2023-03-01T08:26:14;8.63;;;4.40;;
50102;SDS011;35993;52.604;10.078;2023-03-01T08:28:42;7.23;;;4.00;;
50102;SDS011;35993;52.604;10.078;2023-03-01T08:31:17;9.43;;;3.73;;
50102;SDS011;35993;52.604;10.078;2023-03-01T08:33:48;6.97;;;3.77;;
50102;SDS011;35993;52.604;10.078;2023-03-01T08:36:20;13.83;;;4.53;;
50102;SDS011;35993;52.604;10.078;2023-03-01T08:38:47;6.23;;;3.70;;
50102;SDS011;35993;52.604;10.078;2023-03-01T08:41:13;7.20;;;4.17;;
50102;SDS011;35993;52.604;10.078;2023-03-01T08:43:39;8.07;;;4.13;;
50102;SDS011;35993;52.604;10.078;2023-03-01T08:46:05;7.23;;;4.17;;
50102;SDS011;35993;52.604;10.078;2023-03-01T08:48:30;8.87;;;3.90;;
50102;SDS011;35993;52.604;10.078;2023-03-01T08:50:56;6.90;;;4.00;;
50102;SDS011;35993;52.604;10.078;2023-03-01T08:53:21;8.07;;;4.00;;
50102;SDS011;35993;52.604;10.078;2023-03-01T08:55:47;10.27;;;4.03;;
50102;SDS011;35993;52.604;10.078;2023-03-01T08:58:13;8.60;;;4.00;;
50102;SDS011;35993;52.604;10.078;2023-03-01T09:00:38;7.47;;;4.00;;
50102;SDS011;35993;52.604;10.078;2023-03-01T09:03:05;7.63;;;4.10;;
50102;SDS011;35993;52.604;10.078;2023-03-01T09:05:31;8.38;;;4.28;;
50102;SDS011;35993;52.604;10.078;2023-03-01T09:07:58;8.07;;;3.93;;
50102;SDS011;35993;52.604;10.078;2023-03-01T09:10:24;13.13;;;3.80;;
50102;SDS011;35993;52.604;10.078;2023-03-01T09:12:49;7.90;;;3.65;;
50102;SDS011;35993;52.604;10.078;2023-03-01T09:15:16;8.90;;;4.50;;
50102;SDS011;35993;52.604;10.078;2023-03-01T09:17:42;6.43;;;3.67;;
50102;SDS011;35993;52.604;10.078;2023-03-01T09:20:07;8.40;;;4.25;;
50102;SDS011;35993;52.604;10.078;2023-03-01T09:22:33;5.28;;;3.33;;
50102;SDS011;35993;52.604;10.078;2023-03-01T09:25:00;11.55;;;4.13;;
50102;SDS011;35993;52.604;10.078;2023-03-01T09:27:25;7.45;;;3.63;;
50102;SDS011;35993;52.604;10.078;2023-03-01T09:29:51;6.97;;;4.00;;
50102;SDS011;35993;52.604;10.078;2023-03-01T09:32:16;6.03;;;3.23;;
50102;SDS011;35993;52.604;10.078;2023-03-01T09:34:42;6.32;;;3.10;;
50102;SDS011;35993;52.604;10.078;2023-03-01T09:37:26;6.43;;;2.95;;
50102;SDS011;35993;52.604;10.078;2023-03-01T09:39:52;6.28;;;2.90;;
50102;SDS011;35993;52.604;10.078;2023-03-01T09:42:17;5.32;;;2.60;;
50102;SDS011;35993;52.604;10.078;2023-03-01T09:47:19;7.82;;;3.20;;
50102;SDS011;35993;52.604;10.078;2023-03-01T09:49:58;5.43;;;2.83;;
50102;SDS011;35993;52.604;10.078;2023-03-01T09:55:10;5.35;;;2.58;;
50102;SDS011;35993;52.604;10.078;2023-03-01T10:00:54;7.25;;;2.72;;
50102;SDS011;35993;52.604;10.078;2023-03-01T10:03:25;6.35;;;3.17;;
50102;SDS011;35993;52.604;10.078;2023-03-01T10:06:04;5.05;;;2.50;;
50102;SDS011;35993;52.604;10.078;2023-03-01T10:11:31;4.68;;;2.80;;
50102;SDS011;35993;52.604;10.078;2023-03-01T10:19:51;5.15;;;2.30;;
50102;SDS011;35993;52.604;10.078;2023-03-01T10:22:29;6.40;;;2.78;;
50102;SDS011;35993;52.604;10.078;2023-03-01T10:24:57;5.38;;;2.90;;
50102;SDS011;35993;52.604;10.078;2023-03-01T10:27:25;4.82;;;2.42;;
50102;SDS011;35993;52.604;10.078;2023-03-01T10:30:05;3.75;;;2.15;;
50102;SDS011;35993;52.604;10.078;2023-03-01T10:32:45;5.25;;;2.15;;
50102;SDS011;35993;52.604;10.078;2023-03-01T10:35:27;4.90;;;2.50;;
50102;SDS011;35993;52.604;10.078;2023-03-01T10:37:57;5.63;;;2.33;;
50102;SDS011;35993;52.604;10.078;2023-03-01T10:40:28;4.15;;;2.42;;
50102;SDS011;35993;52.604;10.078;2023-03-01T10:42:54;6.00;;;2.55;;
50102;SDS011;35993;52.604;10.078;2023-03-01T10:45:27;5.45;;;2.47;;
50102;SDS011;35993;52.604;10.078;2023-03-01T10:50:44;4.85;;;2.42;;
50102;SDS011;35993;52.604;10.078;2023-03-01T10:56:02;4.65;;;1.70;;
50102;SDS011;35993;52.604;10.078;2023-03-01T10:58:32;4.38;;;1.90;;
50102;SDS011;35993;52.604;10.078;2023-03-01T11:01:41;4.97;;;2.08;;
50102;SDS011;35993;52.604;10.078;2023-03-01T11:04:03;3.47;;;1.70;;
50102;SDS011;35993;52.604;10.078;2023-03-01T11:06:28;4.05;;;1.90;;
50102;SDS011;35993;52.604;10.078;2023-03-01T11:08:54;4.97;;;2.20;;
50102;SDS011;35993;52.604;10.078;2023-03-01T11:11:21;3.55;;;1.77;;
50102;SDS011;35993;52.604;10.078;2023-03-01T11:16:47;3.88;;;1.88;;
50102;SDS011;35993;52.604;10.078;2023-03-01T11:19:22;3.78;;;1.80;;
50102;SDS011;35993;52.604;10.078;2023-03-01T11:21:53;6.82;;;1.92;;
50102;SDS011;35993;52.604;10.078;2023-03-01T11:24:46;3.85;;;1.90;;
50102;SDS011;35993;52.604;10.078;2023-03-01T11:30:03;4.30;;;2.10;;
50102;SDS011;35993;52.604;10.078;2023-03-01T11:32:33;4.10;;;1.77;;
50102;SDS011;35993;52.604;10.078;2023-03-01T11:35:21;3.95;;;2.10;;
50102;SDS011;35993;52.604;10.078;2023-03-01T11:40:25;2.53;;;1.55;;
50102;SDS011;35993;52.604;10.078;2023-03-01T11:46:25;3.25;;;1.70;;
50102;SDS011;35993;52.604;10.078;2023-03-01T11:51:18;4.10;;;1.95;;
50102;SDS011;35993;52.604;10.078;2023-03-01T11:56:28;2.83;;;1.67;;
50102;SDS011;35993;52.604;10.078;2023-03-01T12:01:49;3.78;;;1.88;;
50102;SDS011;35993;52.604;10.078;2023-03-01T12:04:59;4.53;;;1.90;;
50102;SDS011;35993;52.604;10.078;2023-03-01T12:07:46;4.68;;;1.77;;
50102;SDS011;35993;52.604;10.078;2023-03-01T12:10:21;3.00;;;1.60;;
50102;SDS011;35993;52.604;10.078;2023-03-01T12:26:25;3.17;;;1.80;;
50102;SDS011;35993;52.604;10.078;2023-03-01T12:31:43;4.45;;;1.67;;
50102;SDS011;35993;52.604;10.078;2023-03-01T12:45:20;3.30;;;1.70;;
50102;SDS011;35993;52.604;10.078;2023-03-01T12:47:52;2.97;;;1.80;;
50102;SDS011;35993;52.604;10.078;2023-03-01T12:53:28;5.72;;;1.80;;
50102;SDS011;35993;52.604;10.078;2023-03-01T12:56:10;6.10;;;1.98;;
50102;SDS011;35993;52.604;10.078;2023-03-01T13:07:02;3.75;;;1.60;;
50102;SDS011;35993;52.604;10.078;2023-03-01T13:17:48;2.40;;;1.38;;
50102;SDS011;35993;52.604;10.078;2023-03-01T13:30:57;3.65;;;1.80;;
50102;SDS011;35993;52.604;10.078;2023-03-01T13:35:51;4.40;;;1.70;;
50102;SDS011;35993;52.604;10.078;2023-03-01T13:38:37;4.45;;;1.88;;
50102;SDS011;35993;52.604;10.078;2023-03-01T13:41:13;2.60;;;1.30;;
50102;SDS011;35993;52.604;10.078;2023-03-01T13:43:58;2.35;;;1.30;;
50102;SDS011;35993;52.604;10.078;2023-03-01T13:46:24;3.53;;;1.52;;
50102;SDS011;35993;52.604;10.078;2023-03-01T13:48:51;3.80;;;1.83;;
50102;SDS011;35993;52.604;10.078;2023-03-01T13:51:21;3.92;;;1.60;;
50102;SDS011;35993;52.604;10.078;2023-03-01T13:53:51;3.88;;;1.52;;
50102;SDS011;35993;52.604;10.078;2023-03-01T13:56:26;4.18;;;1.73;;
50102;SDS011;35993;52.604;10.078;2023-03-01T13:58:55;2.15;;;1.20;;
50102;SDS011;35993;52.604;10.078;2023-03-01T14:03:49;2.70;;;1.42;;
50102;SDS011;35993;52.604;10.078;2023-03-01T14:06:17;2.92;;;1.70;;
50102;SDS011;35993;52.604;10.078;2023-03-01T14:08:46;4.80;;;2.30;;
50102;SDS011;35993;52.604;10.078;2023-03-01T14:16:56;2.35;;;1.50;;
50102;SDS011;35993;52.604;10.078;2023-03-01T14:19:24;2.72;;;1.50;;
50102;SDS011;35993;52.604;10.078;2023-03-01T14:21:58;3.17;;;1.55;;
50102;SDS011;35993;52.604;10.078;2023-03-01T14:24:27;2.63;;;1.50;;
50102;SDS011;35993;52.604;10.078;2023-03-01T14:26:56;2.42;;;1.42;;
50102;SDS011;35993;52.604;10.078;2023-03-01T14:29:56;3.28;;;1.33;;
50102;SDS011;35993;52.604;10.078;2023-03-01T14:32:30;3.10;;;1.60;;
50102;SDS011;35993;52.604;10.078;2023-03-01T14:34:58;3.38;;;1.83;;
50102;SDS011;35993;52.604;10.078;2023-03-01T14:37:26;2.30;;;1.63;;
50102;SDS011;35993;52.604;10.078;2023-03-01T14:39:53;2.90;;;1.45;;
50102;SDS011;35993;52.604;10.078;2023-03-01T14:42:20;2.50;;;1.58;;
50102;SDS011;35993;52.604;10.078;2023-03-01T14:44:51;3.10;;;1.67;;
50102;SDS011;35993;52.604;10.078;2023-03-01T14:47:22;4.13;;;1.50;;
50102;SDS011;35993;52.604;10.078;2023-03-01T14:50:02;2.30;;;1.45;;
50102;SDS011;35993;52.604;10.078;2023-03-01T14:52:40;2.72;;;1.50;;
50102;SDS011;35993;52.604;10.078;2023-03-01T14:55:53;3.45;;;1.40;;
50102;SDS011;35993;52.604;10.078;2023-03-01T14:58:04;3.15;;;1.65;;
50102;SDS011;35993;52.604;10.078;2023-03-01T15:00:36;2.33;;;1.50;;
50102;SDS011;35993;52.604;10.078;2023-03-01T15:03:07;6.70;;;1.65;;
50102;SDS011;35993;52.604;10.078;2023-03-01T15:05:41;2.90;;;1.40;;
50102;SDS011;35993;52.604;10.078;2023-03-01T15:08:11;2.83;;;1.38;;
50102;SDS011;35993;52.604;10.078;2023-03-01T15:10:55;2.88;;;1.40;;
50102;SDS011;35993;52.604;10.078;2023-03-01T15:13:45;2.85;;;1.45;;
50102;SDS011;35993;52.604;10.078;2023-03-01T15:18:48;2.22;;;1.40;;
50102;SDS011;35993;52.604;10.078;2023-03-01T15:21:26;3.20;;;1.42;;
50102;SDS011;35993;52.604;10.078;2023-03-01T15:23:58;2.80;;;1.40;;
50102;SDS011;35993;52.604;10.078;2023-03-01T15:26:35;2.42;;;1.40;;
50102;SDS011;35993;52.604;10.078;2023-03-01T15:29:10;3.17;;;1.30;;
50102;SDS011;35993;52.604;10.078;2023-03-01T15:31:42;4.13;;;1.50;;
50102;SDS011;35993;52.604;10.078;2023-03-01T15:34:09;3.33;;;1.30;;
50102;SDS011;35993;52.604;10.078;2023-03-01T15:36:45;3.10;;;1.38;;
50102;SDS011;35993;52.604;10.078;2023-03-01T15:39:26;1.95;;;1.30;;
50102;SDS011;35993;52.604;10.078;2023-03-01T15:41:58;2.75;;;1.30;;
50102;SDS011;35993;52.604;10.078;2023-03-01T15:44:28;2.53;;;1.38;;
50102;SDS011;35993;52.604;10.078;2023-03-01T15:46:56;2.38;;;1.30;;
50102;SDS011;35993;52.604;10.078;2023-03-01T15:52:21;2.05;;;1.40;;
50102;SDS011;35993;52.604;10.078;2023-03-01T15:55:02;2.55;;;1.40;;
50102;SDS011;35993;52.604;10.078;2023-03-01T15:57:29;3.60;;;1.33;;
50102;SDS011;35993;52.604;10.078;2023-03-01T15:59:55;2.53;;;1.20;;
50102;SDS011;35993;52.604;10.078;2023-03-01T16:02:21;3.42;;;1.90;;
50102;SDS011;35993;52.604;10.078;2023-03-01T16:04:47;2.83;;;1.60;;
50102;SDS011;35993;52.604;10.078;2023-03-01T16:07:15;4.00;;;1.63;;
50102;SDS011;35993;52.604;10.078;2023-03-01T16:09:41;6.18;;;2.25;;
50102;SDS011;35993;52.604;10.078;2023-03-01T16:12:15;2.28;;;1.40;;
50102;SDS011;35993;52.604;10.078;2023-03-01T16:14:41;7.28;;;1.73;;
50102;SDS011;35993;52.604;10.078;2023-03-01T16:17:07;2.35;;;1.40;;
50102;SDS011;35993;52.604;10.078;2023-03-01T16:19:35;3.83;;;1.50;;
50102;SDS011;35993;52.604;10.078;2023-03-01T16:22:02;2.70;;;1.50;;
50102;SDS011;35993;52.604;10.078;2023-03-01T16:24:28;3.38;;;1.35;;
50102;SDS011;35993;52.604;10.078;2023-03-01T16:26:54;3.05;;;1.42;;
50102;SDS011;35993;52.604;10.078;2023-03-01T16:29:19;1.88;;;1.17;;
50102;SDS011;35993;52.604;10.078;2023-03-01T16:31:45;2.13;;;1.33;;
50102;SDS011;35993;52.604;10.078;2023-03-01T16:34:10;3.13;;;1.50;;
50102;SDS011;35993;52.604;10.078;2023-03-01T16:36:38;3.78;;;1.92;;
50102;SDS011;35993;52.604;10.078;2023-03-01T16:39:03;2.05;;;1.40;;
50102;SDS011;35993;52.604;10.078;2023-03-01T16:41:29;2.58;;;1.30;;